createdAt,value
2018-05-13T00:00:59.185Z,6.93
2018-05-13T00:02:07.870Z,6.45
2018-05-13T00:03:16.479Z,6.62
2018-05-13T00:04:25.097Z,6.20
2018-05-13T00:05:33.807Z,6.20
2018-05-13T00:06:43.326Z,6.93
2018-05-13T00:07:52.150Z,6.75
2018-05-13T00:09:00.893Z,6.60
2018-05-13T00:10:09.548Z,6.60
2018-05-13T00:11:18.225Z,6.82
2018-05-13T00:12:26.872Z,5.78
2018-05-13T00:13:35.608Z,6.35
2018-05-13T00:14:44.430Z,6.70
2018-05-13T00:15:52.994Z,7.30
2018-05-13T00:17:01.551Z,6.65
2018-05-13T00:18:10.244Z,6.05
2018-05-13T00:19:18.868Z,7.05
2018-05-13T00:20:27.411Z,6.55
2018-05-13T00:21:36.035Z,6.97
2018-05-13T00:22:44.773Z,5.70
2018-05-13T00:23:53.352Z,6.28
2018-05-13T00:25:01.939Z,6.62
2018-05-13T00:26:10.618Z,6.25
2018-05-13T00:27:19.554Z,6.50
2018-05-13T00:28:29.130Z,7.15
2018-05-13T00:29:38.796Z,6.65
2018-05-13T00:30:47.614Z,6.90
2018-05-13T00:31:56.323Z,6.70
2018-05-13T00:33:04.913Z,7.10
2018-05-13T00:34:14.348Z,7.03
2018-05-13T00:35:23.041Z,6.40
2018-05-13T00:36:31.643Z,7.05
2018-05-13T00:37:40.382Z,6.15
2018-05-13T00:38:49.867Z,7.12
2018-05-13T00:39:59.251Z,6.25
2018-05-13T00:41:07.983Z,6.70
2018-05-13T00:42:16.667Z,6.22
2018-05-13T00:43:25.271Z,7.60
2018-05-13T00:44:34.004Z,6.57
2018-05-13T00:45:42.661Z,6.85
2018-05-13T00:46:52.228Z,7.12
2018-05-13T00:48:01.058Z,6.75
2018-05-13T00:49:09.823Z,7.05
2018-05-13T00:50:18.527Z,7.12
2018-05-13T00:51:27.076Z,7.25
2018-05-13T00:52:35.687Z,7.22
2018-05-13T00:53:44.400Z,6.43
2018-05-13T00:54:55.792Z,7.20
2018-05-13T00:56:04.384Z,6.85
2018-05-13T00:57:12.949Z,7.60
2018-05-13T00:58:21.743Z,6.93
2018-05-13T00:59:31.275Z,7.47
2018-05-13T01:00:39.975Z,6.70
2018-05-13T01:01:49.614Z,6.45
2018-05-13T01:02:58.204Z,7.05
2018-05-13T01:04:07.521Z,6.55
2018-05-13T01:05:16.235Z,6.65
2018-05-13T01:06:25.709Z,7.15
2018-05-13T01:07:34.545Z,7.45
2018-05-13T01:08:43.232Z,6.97
2018-05-13T01:09:51.932Z,6.93
2018-05-13T01:11:00.500Z,7.28
2018-05-13T01:12:09.114Z,7.28
2018-05-13T01:13:17.799Z,7.35
2018-05-13T01:14:26.338Z,6.65
2018-05-13T01:15:34.919Z,7.80
2018-05-13T01:16:43.592Z,8.07
2018-05-13T01:17:52.141Z,7.22
2018-05-13T01:19:00.806Z,7.20
2018-05-13T01:20:09.447Z,7.60
2018-05-13T01:21:18.970Z,7.70
2018-05-13T01:22:27.607Z,7.70
2018-05-13T01:23:36.183Z,7.03
2018-05-13T01:24:44.896Z,7.80
2018-05-13T01:25:53.530Z,7.90
2018-05-13T01:27:02.240Z,7.18
2018-05-13T01:28:11.761Z,7.43
2018-05-13T01:29:20.541Z,7.45
2018-05-13T01:30:30.097Z,7.55
2018-05-13T01:31:38.814Z,8.10
2018-05-13T01:32:48.356Z,7.93
2018-05-13T01:33:57.092Z,8.52
2018-05-13T01:35:05.676Z,7.10
2018-05-13T01:36:14.408Z,7.78
2018-05-13T01:37:22.951Z,7.70
2018-05-13T01:38:31.497Z,6.55
2018-05-13T01:39:40.274Z,8.43
2018-05-13T01:40:48.878Z,7.28
2018-05-13T01:41:58.974Z,8.38
2018-05-13T01:43:07.612Z,7.80
2018-05-13T01:44:16.308Z,8.02
2018-05-13T01:45:24.895Z,7.50
2018-05-13T01:46:34.310Z,7.82
2018-05-13T01:47:43.136Z,8.20
2018-05-13T01:48:51.735Z,7.55
2018-05-13T01:50:00.476Z,8.52
2018-05-13T01:51:09.227Z,8.70
2018-05-13T01:52:17.839Z,7.00
2018-05-13T01:53:26.405Z,8.43
2018-05-13T01:54:35.127Z,8.77
2018-05-13T01:55:44.608Z,7.97
2018-05-13T01:56:53.411Z,8.88
2018-05-13T01:58:02.013Z,9.10
2018-05-13T01:59:10.629Z,7.43
2018-05-13T02:00:19.395Z,8.57
2018-05-13T02:01:28.079Z,8.10
2018-05-13T02:02:36.770Z,8.55
2018-05-13T02:03:45.497Z,8.50
2018-05-13T02:04:55.123Z,8.18
2018-05-13T02:06:03.733Z,9.00
2018-05-13T02:07:12.427Z,8.68
2018-05-13T02:08:21.075Z,8.07
2018-05-13T02:09:29.791Z,8.95
2018-05-13T02:10:38.394Z,8.30
2018-05-13T02:11:47.060Z,8.35
2018-05-13T02:12:56.390Z,9.10
2018-05-13T02:14:05.174Z,8.35
2018-05-13T02:15:14.767Z,8.55
2018-05-13T02:16:24.389Z,9.20
2018-05-13T02:17:33.083Z,9.20
2018-05-13T02:18:41.732Z,9.10
2018-05-13T02:19:50.292Z,8.82
2018-05-13T02:20:59.030Z,8.40
2018-05-13T02:22:07.628Z,8.93
2018-05-13T02:23:16.364Z,8.73
2018-05-13T02:24:25.083Z,7.90
2018-05-13T02:25:33.695Z,8.68
2018-05-13T02:26:42.560Z,9.25
2018-05-13T02:27:51.159Z,8.13
2018-05-13T02:28:59.795Z,9.38
2018-05-13T02:30:08.491Z,9.07
2018-05-13T02:31:17.189Z,8.32
2018-05-13T02:32:25.937Z,8.32
2018-05-13T02:33:34.711Z,9.00
2018-05-13T02:34:43.395Z,8.75
2018-05-13T02:35:51.980Z,9.10
2018-05-13T02:37:01.525Z,8.00
2018-05-13T02:38:11.055Z,8.00
2018-05-13T02:39:19.766Z,8.55
2018-05-13T02:40:28.450Z,8.60
2018-05-13T02:41:37.227Z,8.27
2018-05-13T02:42:45.934Z,8.15
2018-05-13T02:43:54.586Z,8.75
2018-05-13T02:45:03.166Z,8.80
2018-05-13T02:46:11.765Z,8.35
2018-05-13T02:47:20.355Z,9.95
2018-05-13T02:48:28.937Z,9.95
2018-05-13T02:49:37.585Z,8.77
2018-05-13T02:50:46.246Z,9.52
2018-05-13T02:51:54.858Z,8.55
2018-05-13T02:53:05.031Z,8.95
2018-05-13T02:54:13.774Z,9.38
2018-05-13T02:55:22.547Z,8.45
2018-05-13T02:56:31.275Z,9.63
2018-05-13T02:57:39.891Z,9.05
2018-05-13T02:58:48.584Z,9.88
2018-05-13T02:59:57.414Z,8.88
2018-05-13T03:01:06.027Z,8.98
2018-05-13T03:02:14.719Z,9.55
2018-05-13T03:03:23.415Z,9.77
2018-05-13T03:04:32.119Z,9.50
2018-05-13T03:05:40.725Z,8.27
2018-05-13T03:06:49.296Z,9.95
2018-05-13T03:07:58.068Z,9.02
2018-05-13T03:09:06.705Z,8.27
2018-05-13T03:10:16.187Z,9.65
2018-05-13T03:11:25.499Z,9.48
2018-05-13T03:12:34.263Z,9.57
2018-05-13T03:13:42.969Z,10.07
2018-05-13T03:14:51.676Z,8.90
2018-05-13T03:16:01.220Z,8.90
2018-05-13T03:17:10.810Z,9.55
2018-05-13T03:18:19.474Z,9.07
2018-05-13T03:19:28.255Z,9.57
2018-05-13T03:20:36.831Z,9.60
2018-05-13T03:21:45.405Z,10.07
2018-05-13T03:22:54.056Z,9.88
2018-05-13T03:24:02.676Z,9.10
2018-05-13T03:25:11.299Z,9.77
2018-05-13T03:26:19.987Z,10.32
2018-05-13T03:27:28.637Z,10.25
2018-05-13T03:28:37.225Z,9.02
2018-05-13T03:29:46.654Z,9.85
2018-05-13T03:30:55.228Z,9.95
2018-05-13T03:32:03.954Z,8.85
2018-05-13T03:33:12.711Z,10.75
2018-05-13T03:34:21.313Z,10.00
2018-05-13T03:35:29.914Z,10.50
2018-05-13T03:36:38.483Z,10.70
2018-05-13T03:37:47.032Z,8.65
2018-05-13T03:38:55.622Z,9.35
2018-05-13T03:40:04.328Z,8.98
2018-05-13T03:41:13.967Z,8.27
2018-05-13T03:42:22.600Z,8.90
2018-05-13T03:43:31.465Z,9.57
2018-05-13T03:44:40.236Z,9.50
2018-05-13T03:45:48.835Z,9.48
2018-05-13T03:46:57.460Z,10.15
2018-05-13T03:48:07.775Z,9.60
2018-05-13T03:49:16.288Z,9.70
2018-05-13T03:50:24.899Z,8.32
2018-05-13T03:51:33.514Z,8.90
2018-05-13T03:52:42.311Z,8.68
2018-05-13T03:53:50.887Z,8.95
2018-05-13T03:54:59.586Z,9.43
2018-05-13T03:56:08.201Z,9.15
2018-05-13T03:57:17.574Z,10.45
2018-05-13T03:58:26.415Z,8.85
2018-05-13T03:59:35.062Z,8.95
2018-05-13T04:00:43.899Z,8.10
2018-05-13T04:01:52.746Z,9.48
2018-05-13T04:03:01.552Z,8.43
2018-05-13T04:04:10.949Z,9.35
2018-05-13T04:05:20.260Z,8.60
2018-05-13T04:06:29.215Z,9.07
2018-05-13T04:09:25.293Z,8.80
2018-05-13T04:10:45.819Z,8.68
2018-05-13T04:12:07.341Z,7.95
2018-05-13T04:13:27.859Z,8.32
2018-05-13T04:14:48.517Z,8.23
2018-05-13T04:15:57.247Z,9.60
2018-05-13T04:17:05.881Z,9.20
2018-05-13T04:18:15.312Z,8.88
2018-05-13T04:19:24.171Z,9.40
2018-05-13T04:20:32.766Z,8.95
2018-05-13T04:21:41.451Z,7.57
2018-05-13T04:22:50.072Z,8.70
2018-05-13T04:23:58.737Z,9.55
2018-05-13T04:25:07.414Z,9.65
2018-05-13T04:26:17.149Z,9.00
2018-05-13T04:27:25.863Z,9.23
2018-05-13T04:28:34.413Z,9.70
2018-05-13T04:29:43.139Z,9.00
2018-05-13T04:30:51.765Z,9.73
2018-05-13T04:32:01.216Z,9.95
2018-05-13T04:33:09.923Z,10.25
2018-05-13T04:34:18.488Z,8.93
2018-05-13T04:35:27.174Z,10.23
2018-05-13T04:36:35.982Z,9.90
2018-05-13T04:37:44.635Z,9.10
2018-05-13T04:38:53.179Z,10.05
2018-05-13T04:40:01.783Z,9.27
2018-05-13T04:41:10.373Z,9.95
2018-05-13T04:42:19.077Z,10.00
2018-05-13T04:43:27.842Z,9.77
2018-05-13T04:44:36.551Z,9.80
2018-05-13T04:45:45.215Z,9.88
2018-05-13T04:46:53.989Z,10.40
2018-05-13T04:48:02.743Z,10.57
2018-05-13T04:49:11.579Z,10.40
2018-05-13T04:50:20.406Z,11.25
2018-05-13T04:51:29.873Z,10.38
2018-05-13T04:52:38.698Z,10.60
2018-05-13T04:53:47.291Z,10.80
2018-05-13T04:54:55.994Z,11.20
2018-05-13T04:56:04.691Z,11.15
2018-05-13T04:57:13.633Z,11.43
2018-05-13T04:58:22.286Z,9.65
2018-05-13T04:59:30.851Z,11.48
2018-05-13T05:00:39.513Z,11.15
2018-05-13T05:01:48.169Z,11.52
2018-05-13T05:02:56.883Z,11.43
2018-05-13T05:04:05.557Z,10.43
2018-05-13T05:05:14.949Z,10.57
2018-05-13T05:06:23.651Z,10.80
2018-05-13T05:07:32.255Z,10.10
2018-05-13T05:08:40.854Z,9.70
2018-05-13T05:09:49.651Z,11.00
2018-05-13T05:10:58.274Z,11.10
2018-05-13T05:12:06.891Z,10.23
2018-05-13T05:13:15.539Z,10.25
2018-05-13T05:14:24.309Z,10.07
2018-05-13T05:15:33.053Z,10.13
2018-05-13T05:16:41.821Z,10.90
2018-05-13T05:17:50.419Z,11.60
2018-05-13T05:18:58.997Z,11.25
2018-05-13T05:20:07.737Z,12.15
2018-05-13T05:21:16.357Z,11.20
2018-05-13T05:22:25.025Z,10.98
2018-05-13T05:23:33.645Z,10.05
2018-05-13T05:24:42.337Z,10.70
2018-05-13T05:25:51.056Z,10.32
2018-05-13T05:26:59.747Z,10.52
2018-05-13T05:28:08.663Z,11.63
2018-05-13T05:29:17.354Z,10.65
2018-05-13T05:30:26.731Z,10.30
2018-05-13T05:31:35.464Z,10.73
2018-05-13T05:32:44.189Z,10.35
2018-05-13T05:33:52.852Z,10.90
2018-05-13T05:35:01.622Z,12.18
2018-05-13T05:36:10.408Z,10.23
2018-05-13T05:37:19.012Z,11.10
2018-05-13T05:38:27.622Z,11.20
2018-05-13T05:39:36.319Z,11.00
2018-05-13T05:40:45.024Z,10.60
2018-05-13T05:41:54.456Z,9.55
2018-05-13T05:43:03.166Z,10.18
2018-05-13T05:44:11.772Z,9.48
2018-05-13T05:45:21.453Z,9.75
2018-05-13T05:46:30.163Z,10.57
2018-05-13T05:47:38.742Z,9.63
2018-05-13T05:48:47.453Z,9.38
2018-05-13T05:49:56.139Z,9.35
2018-05-13T05:51:06.310Z,9.65
2018-05-13T05:52:14.952Z,10.40
2018-05-13T05:53:23.547Z,9.60
2018-05-13T05:54:32.393Z,9.60
2018-05-13T05:55:41.076Z,9.10
2018-05-13T05:56:49.639Z,9.90
2018-05-13T05:57:58.330Z,9.45
2018-05-13T05:59:07.698Z,9.30
2018-05-13T06:00:16.484Z,8.75
2018-05-13T06:01:25.017Z,9.65
2018-05-13T06:02:33.619Z,9.35
2018-05-13T06:03:42.267Z,9.60
2018-05-13T06:04:50.923Z,9.07
2018-05-13T06:05:59.569Z,10.32
2018-05-13T06:07:08.174Z,9.63
2018-05-13T06:08:17.019Z,10.40
2018-05-13T06:09:26.436Z,10.52
2018-05-13T06:10:35.219Z,9.77
2018-05-13T06:11:43.915Z,9.57
2018-05-13T06:12:52.659Z,9.90
2018-05-13T06:14:01.259Z,9.65
2018-05-13T06:15:10.702Z,10.35
2018-05-13T06:16:19.413Z,10.23
2018-05-13T06:17:28.121Z,9.77
2018-05-13T06:18:36.791Z,10.13
2018-05-13T06:19:45.665Z,9.90
2018-05-13T06:20:55.170Z,9.70
2018-05-13T06:22:04.926Z,9.95
2018-05-13T06:23:13.530Z,8.52
2018-05-13T06:24:22.190Z,10.40
2018-05-13T06:25:30.968Z,9.65
2018-05-13T06:26:39.624Z,9.50
2018-05-13T06:27:48.363Z,9.85
2018-05-13T06:28:56.862Z,9.63
2018-05-13T06:30:05.449Z,10.95
2018-05-13T06:31:14.418Z,9.65
2018-05-13T06:32:23.327Z,9.38
2018-05-13T06:33:32.007Z,10.32
2018-05-13T06:34:40.735Z,11.20
2018-05-13T06:35:49.256Z,9.98
2018-05-13T06:36:57.954Z,10.18
2018-05-13T06:38:07.990Z,9.63
2018-05-13T06:39:17.440Z,10.20
2018-05-13T06:40:26.251Z,9.52
2018-05-13T06:41:35.875Z,10.57
2018-05-13T06:42:44.645Z,10.65
2018-05-13T06:43:53.372Z,10.85
2018-05-13T06:45:01.968Z,10.45
2018-05-13T06:46:10.700Z,10.40
2018-05-13T06:47:19.338Z,10.15
2018-05-13T06:48:28.151Z,11.20
2018-05-13T06:49:36.742Z,9.35
2018-05-13T06:50:45.317Z,10.70
2018-05-13T06:51:53.946Z,11.32
2018-05-13T06:53:02.673Z,9.52
2018-05-13T06:54:11.355Z,10.13
2018-05-13T06:55:19.961Z,9.75
2018-05-13T06:56:28.794Z,10.88
2018-05-13T06:57:37.421Z,9.43
2018-05-13T06:58:46.149Z,9.73
2018-05-13T06:59:54.901Z,10.45
2018-05-13T07:01:03.595Z,10.40
2018-05-13T07:02:13.168Z,10.52
2018-05-13T07:03:21.796Z,10.00
2018-05-13T07:04:30.522Z,10.50
2018-05-13T07:05:39.311Z,9.65
2018-05-13T07:06:47.938Z,11.25
2018-05-13T07:07:56.507Z,11.57
2018-05-13T07:09:05.235Z,10.40
2018-05-13T07:10:13.940Z,10.90
2018-05-13T07:11:22.516Z,11.07
2018-05-13T07:12:31.400Z,10.38
2018-05-13T07:13:40.222Z,9.90
2018-05-13T07:14:48.867Z,10.13
2018-05-13T07:15:57.481Z,11.20
2018-05-13T07:17:06.224Z,10.77
2018-05-13T07:18:14.897Z,11.63
2018-05-13T07:19:23.509Z,11.05
2018-05-13T07:20:32.052Z,11.90
2018-05-13T07:21:40.644Z,10.73
2018-05-13T07:22:49.343Z,11.27
2018-05-13T07:23:57.875Z,10.68
2018-05-13T07:25:06.602Z,12.32
2018-05-13T07:26:16.006Z,11.75
2018-05-13T07:27:24.718Z,12.05
2018-05-13T07:28:33.408Z,12.20
2018-05-13T07:29:42.123Z,11.52
2018-05-13T07:30:50.856Z,11.40
2018-05-13T07:31:59.463Z,11.82
2018-05-13T07:33:08.060Z,10.50
2018-05-13T07:34:16.657Z,11.77
2018-05-13T07:35:25.359Z,10.38
2018-05-13T07:36:34.838Z,12.00
2018-05-13T07:37:43.550Z,10.52
2018-05-13T07:38:52.263Z,11.93
2018-05-13T07:40:01.671Z,11.20
2018-05-13T07:41:10.354Z,11.30
2018-05-13T07:42:19.158Z,11.65
2018-05-13T07:43:27.768Z,11.68
2018-05-13T07:44:36.561Z,11.23
2018-05-13T07:45:45.340Z,20.48
2018-05-13T07:46:54.831Z,12.15
2018-05-13T07:48:03.739Z,11.18
2018-05-13T07:49:12.551Z,13.52
2018-05-13T07:50:21.294Z,10.82
2018-05-13T07:51:30.720Z,11.65
2018-05-13T07:52:39.507Z,10.80
2018-05-13T07:53:48.319Z,12.25
2018-05-13T07:54:56.945Z,12.85
2018-05-13T07:56:05.595Z,11.80
2018-05-13T07:57:14.153Z,11.12
2018-05-13T07:58:22.859Z,11.35
2018-05-13T07:59:31.498Z,11.55
2018-05-13T08:00:40.207Z,11.70
2018-05-13T08:01:48.797Z,11.88
2018-05-13T08:02:58.363Z,12.10
2018-05-13T08:04:07.089Z,11.50
2018-05-13T08:05:15.809Z,11.18
2018-05-13T08:06:24.610Z,13.77
2018-05-13T08:07:33.309Z,12.52
2018-05-13T08:08:42.926Z,11.70
2018-05-13T08:09:51.559Z,11.23
2018-05-13T08:11:00.267Z,11.02
2018-05-13T08:12:08.983Z,11.10
2018-05-13T08:13:17.688Z,11.93
2018-05-13T08:14:26.360Z,13.00
2018-05-13T08:15:34.979Z,12.27
2018-05-13T08:16:44.529Z,11.15
2018-05-13T08:17:53.355Z,11.00
2018-05-13T08:19:01.975Z,10.85
2018-05-13T08:20:11.355Z,11.27
2018-05-13T08:21:20.204Z,11.57
2018-05-13T08:22:28.880Z,12.43
2018-05-13T08:23:37.680Z,11.15
2018-05-13T08:24:46.434Z,10.63
2018-05-13T08:25:54.953Z,11.48
2018-05-13T08:27:03.640Z,11.10
2018-05-13T08:28:12.364Z,11.40
2018-05-13T08:29:20.989Z,12.65
2018-05-13T08:30:29.652Z,12.80
2018-05-13T08:31:38.426Z,12.45
2018-05-13T08:32:47.925Z,10.45
2018-05-13T08:33:57.359Z,10.82
2018-05-13T08:35:06.007Z,11.52
2018-05-13T08:36:14.699Z,11.93
2018-05-13T08:37:23.501Z,11.18
2018-05-13T08:38:32.094Z,12.50
2018-05-13T08:39:40.656Z,11.50
2018-05-13T08:40:49.508Z,11.15
2018-05-13T08:41:58.338Z,11.80
2018-05-13T08:43:07.047Z,11.57
2018-05-13T08:44:15.822Z,11.55
2018-05-13T08:45:24.568Z,11.35
2018-05-13T08:46:34.003Z,10.32
2018-05-13T08:47:42.671Z,11.77
2018-05-13T08:48:51.299Z,12.00
2018-05-13T08:50:00.625Z,11.50
2018-05-13T08:51:09.351Z,11.75
2018-05-13T08:52:17.984Z,10.40
2018-05-13T08:53:26.621Z,11.02
2018-05-13T08:54:36.082Z,9.85
2018-05-13T08:55:44.779Z,10.40
2018-05-13T08:56:53.412Z,10.52
2018-05-13T08:58:02.191Z,11.52
2018-05-13T08:59:10.799Z,13.13
2018-05-13T09:00:19.551Z,10.80
2018-05-13T09:01:28.974Z,10.20
2018-05-13T09:02:37.698Z,9.80
2018-05-13T09:03:47.214Z,8.63
2018-05-13T09:04:55.866Z,10.50
2018-05-13T09:06:04.531Z,11.45
2018-05-13T09:07:13.204Z,11.50
2018-05-13T09:08:21.882Z,11.48
2018-05-13T09:09:30.546Z,11.35
2018-05-13T09:10:40.015Z,12.63
2018-05-13T09:11:48.598Z,12.00
2018-05-13T09:12:57.223Z,11.60
2018-05-13T09:14:06.116Z,11.93
2018-05-13T09:15:14.731Z,11.07
2018-05-13T09:16:23.437Z,11.00
2018-05-13T09:17:32.181Z,11.82
2018-05-13T09:18:40.996Z,10.98
2018-05-13T09:19:49.668Z,12.93
2018-05-13T09:20:59.279Z,11.85
2018-05-13T09:22:07.947Z,11.98
2018-05-13T09:23:17.525Z,11.40
2018-05-13T09:24:26.122Z,9.80
2018-05-13T09:25:34.824Z,10.45
2018-05-13T09:26:43.397Z,9.45
2018-05-13T09:27:52.069Z,9.90
2018-05-13T09:29:00.834Z,9.90
2018-05-13T09:30:09.542Z,10.07
2018-05-13T09:31:19.084Z,11.65
2018-05-13T09:32:28.510Z,10.93
2018-05-13T09:33:37.223Z,11.32
2018-05-13T09:34:45.947Z,11.60
2018-05-13T09:35:55.457Z,10.45
2018-05-13T09:37:04.056Z,10.60
2018-05-13T09:38:12.622Z,10.68
2018-05-13T09:39:21.295Z,10.23
2018-05-13T09:40:30.012Z,9.60
2018-05-13T09:41:39.452Z,8.95
2018-05-13T09:42:48.881Z,9.13
2018-05-13T09:43:57.567Z,10.00
2018-05-13T09:45:06.309Z,10.45
2018-05-13T09:46:15.035Z,11.25
2018-05-13T09:47:24.530Z,8.80
2018-05-13T09:48:33.374Z,11.25
2018-05-13T09:49:41.947Z,10.85
2018-05-13T09:50:50.633Z,12.18
2018-05-13T09:51:59.377Z,12.57
2018-05-13T09:53:08.088Z,12.48
2018-05-13T09:54:16.803Z,11.07
2018-05-13T09:55:25.442Z,10.60
2018-05-13T09:56:34.056Z,10.10
2018-05-13T09:57:42.913Z,10.57
2018-05-13T09:58:51.484Z,11.43
2018-05-13T10:00:00.365Z,10.20
2018-05-13T10:01:09.087Z,9.13
2018-05-13T10:02:17.852Z,10.10
2018-05-13T10:03:27.416Z,10.30
2018-05-13T10:04:36.031Z,9.95
2018-05-13T10:05:44.702Z,10.38
2018-05-13T10:06:54.209Z,10.63
2018-05-13T10:08:02.967Z,9.10
2018-05-13T10:09:11.501Z,7.72
2018-05-13T10:10:20.299Z,9.18
2018-05-13T10:11:29.232Z,8.07
2018-05-13T10:12:37.865Z,9.40
2018-05-13T10:13:46.570Z,8.48
2018-05-13T10:14:55.238Z,8.32
2018-05-13T10:16:03.854Z,8.45
2018-05-13T10:17:12.527Z,8.27
2018-05-13T10:18:21.183Z,8.38
2018-05-13T10:19:29.800Z,8.77
2018-05-13T10:20:38.513Z,7.62
2018-05-13T10:21:47.893Z,8.95
2018-05-13T10:22:56.522Z,7.90
2018-05-13T10:24:05.338Z,7.37
2018-05-13T10:25:14.026Z,7.22
2018-05-13T10:26:22.892Z,7.53
2018-05-13T10:27:31.587Z,7.57
2018-05-13T10:28:40.127Z,8.25
2018-05-13T10:29:48.749Z,9.10
2018-05-13T10:30:57.396Z,8.45
2018-05-13T10:32:06.104Z,8.70
2018-05-13T10:33:14.813Z,7.28
2018-05-13T10:34:23.523Z,8.38
2018-05-13T10:35:32.162Z,8.27
2018-05-13T10:36:40.932Z,8.48
2018-05-13T10:37:49.688Z,8.80
2018-05-13T10:38:58.248Z,9.75
2018-05-13T10:40:06.854Z,8.85
2018-05-13T10:41:15.469Z,8.73
2018-05-13T10:42:23.975Z,7.85
2018-05-13T10:43:32.587Z,9.13
2018-05-13T10:44:41.207Z,9.10
2018-05-13T10:45:49.804Z,7.78
2018-05-13T10:46:58.420Z,8.07
2018-05-13T10:48:07.026Z,9.48
2018-05-13T10:49:15.648Z,9.18
2018-05-13T10:50:25.059Z,8.60
2018-05-13T10:51:33.865Z,7.80
2018-05-13T10:52:42.389Z,7.53
2018-05-13T10:53:51.023Z,8.00
2018-05-13T10:54:59.692Z,7.97
2018-05-13T10:56:08.458Z,7.93
2018-05-13T10:57:17.042Z,8.95
2018-05-13T10:58:25.678Z,8.60
2018-05-13T10:59:34.487Z,8.98
2018-05-13T11:00:43.034Z,7.57
2018-05-13T11:01:51.671Z,8.10
2018-05-13T11:03:00.319Z,8.50
2018-05-13T11:04:09.794Z,7.40
2018-05-13T11:05:18.552Z,7.55
2018-05-13T11:06:27.117Z,8.82
2018-05-13T11:07:35.725Z,8.48
2018-05-13T11:08:45.177Z,8.10
2018-05-13T11:09:53.868Z,8.60
2018-05-13T11:11:03.303Z,8.60
2018-05-13T11:12:12.033Z,7.97
2018-05-13T11:13:20.669Z,8.13
2018-05-13T11:14:29.309Z,8.23
2018-05-13T11:15:37.936Z,7.90
2018-05-13T11:16:46.629Z,6.78
2018-05-13T11:17:55.369Z,9.00
2018-05-13T11:19:04.086Z,8.95
2018-05-13T11:20:12.823Z,8.65
2018-05-13T11:21:21.402Z,8.52
2018-05-13T11:22:30.006Z,8.93
2018-05-13T11:23:38.742Z,5.85
2018-05-13T11:24:47.320Z,8.80
2018-05-13T11:25:55.971Z,8.05
2018-05-13T11:27:04.678Z,10.05
2018-05-13T11:28:13.444Z,8.00
2018-05-13T11:29:22.260Z,7.82
2018-05-13T11:30:30.871Z,8.63
2018-05-13T11:31:39.575Z,7.90
2018-05-13T11:32:48.194Z,7.97
2018-05-13T11:33:56.801Z,6.62
2018-05-13T11:35:05.431Z,10.05
2018-05-13T11:36:14.022Z,7.93
2018-05-13T11:37:22.881Z,7.35
2018-05-13T11:38:31.685Z,7.70
2018-05-13T11:39:40.391Z,8.88
2018-05-13T11:40:49.095Z,8.70
2018-05-13T11:41:57.683Z,9.75
2018-05-13T11:43:06.411Z,9.90
2018-05-13T11:44:15.037Z,7.05
2018-05-13T11:45:23.650Z,7.18
2018-05-13T11:46:32.310Z,6.20
2018-05-13T11:47:41.025Z,7.22
2018-05-13T11:48:49.681Z,7.18
2018-05-13T11:49:58.358Z,5.82
2018-05-13T11:51:07.059Z,6.68
2018-05-13T11:52:15.689Z,5.97
2018-05-13T11:53:24.423Z,5.90
2018-05-13T11:54:33.940Z,6.53
2018-05-13T11:55:43.374Z,5.90
2018-05-13T11:56:51.934Z,6.00
2018-05-13T11:58:00.811Z,5.95
2018-05-13T11:59:09.539Z,6.22
2018-05-13T12:00:18.403Z,6.43
2018-05-13T12:01:27.862Z,5.45
2018-05-13T12:02:36.536Z,5.40
2018-05-13T12:03:45.431Z,5.35
2018-05-13T12:04:53.949Z,5.03
2018-05-13T12:06:02.575Z,4.97
2018-05-13T12:07:11.339Z,5.30
2018-05-13T12:08:20.125Z,7.78
2018-05-13T12:09:28.712Z,7.37
2018-05-13T12:10:38.250Z,9.48
2018-05-13T12:11:46.933Z,7.57
2018-05-13T12:12:55.830Z,7.15
2018-05-13T12:14:04.457Z,9.10
2018-05-13T12:15:13.912Z,9.45
2018-05-13T12:16:22.700Z,9.13
2018-05-13T12:17:31.448Z,8.55
2018-05-13T12:18:40.277Z,8.20
2018-05-13T12:19:48.906Z,9.20
2018-05-13T12:20:58.513Z,8.57
2018-05-13T12:22:07.283Z,9.07
2018-05-13T12:23:15.925Z,7.72
2018-05-13T12:24:24.604Z,9.07
2018-05-13T12:25:33.398Z,9.10
2018-05-13T12:26:42.942Z,7.22
2018-05-13T12:27:51.583Z,7.82
2018-05-13T12:29:00.352Z,8.45
2018-05-13T12:30:09.088Z,8.30
2018-05-13T12:31:17.807Z,8.18
2018-05-13T12:32:26.393Z,7.43
2018-05-13T12:33:34.954Z,6.30
2018-05-13T12:34:43.634Z,5.93
2018-05-13T12:35:52.462Z,7.78
2018-05-13T12:37:01.015Z,6.43
2018-05-13T12:38:09.671Z,7.25
2018-05-13T12:39:18.495Z,7.55
2018-05-13T12:40:27.186Z,6.82
2018-05-13T12:41:35.835Z,6.70
2018-05-13T12:42:44.546Z,6.60
2018-05-13T12:43:53.298Z,6.30
2018-05-13T12:45:02.738Z,5.70
2018-05-13T12:46:11.600Z,6.97
2018-05-13T12:47:20.227Z,6.45
2018-05-13T12:48:28.908Z,5.80
2018-05-13T12:49:37.628Z,6.03
2018-05-13T12:50:46.198Z,5.47
2018-05-13T12:51:54.976Z,6.50
2018-05-13T12:53:03.628Z,6.43
2018-05-13T12:54:13.305Z,6.93
2018-05-13T12:55:22.721Z,6.20
2018-05-13T12:56:31.401Z,6.18
2018-05-13T12:57:40.155Z,5.53
2018-05-13T12:58:48.783Z,4.97
2018-05-13T12:59:58.167Z,6.03
2018-05-13T13:01:06.866Z,5.03
2018-05-13T13:02:15.657Z,5.30
2018-05-13T13:03:24.325Z,5.12
2018-05-13T13:04:33.021Z,4.72
2018-05-13T13:05:41.589Z,5.00
2018-05-13T13:06:50.333Z,4.25
2018-05-13T13:07:59.034Z,4.07
2018-05-13T13:09:08.555Z,4.65
2018-05-13T13:10:17.087Z,4.55
2018-05-13T13:11:25.782Z,3.75
2018-05-13T13:12:34.451Z,3.55
2018-05-13T13:13:43.915Z,3.85
2018-05-13T13:14:52.485Z,4.15
2018-05-13T13:16:01.080Z,4.25
2018-05-13T13:17:10.014Z,4.10
2018-05-13T13:18:18.633Z,4.05
2018-05-13T13:19:27.377Z,3.87
2018-05-13T13:20:36.007Z,4.12
2018-05-13T13:21:44.859Z,4.35
2018-05-13T13:22:53.459Z,5.15
2018-05-13T13:24:02.104Z,3.90
2018-05-13T13:25:10.848Z,3.95
2018-05-13T13:26:19.448Z,5.40
2018-05-13T13:27:28.003Z,4.82
2018-05-13T13:28:36.623Z,4.75
2018-05-13T13:29:45.316Z,6.50
2018-05-13T13:30:54.132Z,5.05
2018-05-13T13:32:02.792Z,4.80
2018-05-13T13:33:11.473Z,5.05
2018-05-13T13:34:20.095Z,5.25
2018-05-13T13:35:28.689Z,5.15
2018-05-13T13:36:37.563Z,3.75
2018-05-13T13:37:46.228Z,4.10
2018-05-13T13:38:54.828Z,5.00
2018-05-13T13:40:03.567Z,4.25
2018-05-13T13:41:13.374Z,4.35
2018-05-13T13:42:22.111Z,4.20
2018-05-13T13:43:30.725Z,4.43
2018-05-13T13:44:39.303Z,4.82
2018-05-13T13:45:47.993Z,4.00
2018-05-13T13:46:56.671Z,3.90
2018-05-13T13:48:06.049Z,3.33
2018-05-13T13:49:14.754Z,3.22
2018-05-13T13:50:23.477Z,3.00
2018-05-13T13:51:32.197Z,4.10
2018-05-13T13:52:40.786Z,3.25
2018-05-13T13:53:49.599Z,4.65
2018-05-13T13:54:58.157Z,3.60
2018-05-13T13:56:06.813Z,3.65
2018-05-13T13:57:15.421Z,3.08
2018-05-13T13:58:24.162Z,3.70
2018-05-13T13:59:33.014Z,3.53
2018-05-13T14:00:41.636Z,2.95
2018-05-13T14:01:50.327Z,3.10
2018-05-13T14:03:00.651Z,3.20
2018-05-13T14:04:09.186Z,2.67
2018-05-13T14:05:17.892Z,3.60
2018-05-13T14:06:27.453Z,2.87
2018-05-13T14:07:36.801Z,3.00
2018-05-13T14:08:45.563Z,2.65
2018-05-13T14:09:54.247Z,3.40
2018-05-13T14:11:03.051Z,2.85
2018-05-13T14:12:11.660Z,3.12
2018-05-13T14:13:20.402Z,3.30
2018-05-13T14:14:29.097Z,2.95
2018-05-13T14:15:37.922Z,3.33
2018-05-13T14:16:46.721Z,2.60
2018-05-13T14:17:55.596Z,2.95
2018-05-13T14:19:04.210Z,3.45
2018-05-13T14:20:13.029Z,3.55
2018-05-13T14:21:21.644Z,3.25
2018-05-13T14:22:30.319Z,3.10
2018-05-13T14:23:39.071Z,2.58
2018-05-13T14:24:47.755Z,3.20
2018-05-13T14:25:57.123Z,2.90
2018-05-13T14:27:06.025Z,3.10
2018-05-13T14:28:14.678Z,2.53
2018-05-13T14:29:24.175Z,2.60
2018-05-13T14:30:33.069Z,2.92
2018-05-13T14:31:42.587Z,2.42
2018-05-13T14:32:51.313Z,3.00
2018-05-13T14:33:59.905Z,3.53
2018-05-13T14:35:08.516Z,2.80
2018-05-13T14:36:17.185Z,3.30
2018-05-13T14:37:25.939Z,3.25
2018-05-13T14:38:34.655Z,2.95
2018-05-13T14:39:43.428Z,2.85
2018-05-13T14:40:52.200Z,2.85
2018-05-13T14:42:01.839Z,2.90
2018-05-13T14:43:10.560Z,2.90
2018-05-13T14:44:19.136Z,2.70
2018-05-13T14:45:27.803Z,3.25
2018-05-13T14:46:37.314Z,3.10
2018-05-13T14:47:46.903Z,2.95
2018-05-13T14:48:55.663Z,2.85
2018-05-13T14:50:04.287Z,2.90
2018-05-13T14:51:13.111Z,2.70
2018-05-13T14:52:21.880Z,2.58
2018-05-13T14:53:31.235Z,2.95
2018-05-13T14:54:39.939Z,3.10
2018-05-13T14:55:49.335Z,2.92
2018-05-13T14:56:58.886Z,2.45
2018-05-13T14:58:07.750Z,2.60
2018-05-13T14:59:16.407Z,2.80
2018-05-13T15:00:25.952Z,3.60
2018-05-13T15:01:35.387Z,2.97
2018-05-13T15:02:44.185Z,2.70
2018-05-13T15:03:53.717Z,3.25
2018-05-13T15:05:02.438Z,2.70
2018-05-13T15:06:11.128Z,2.33
2018-05-13T15:07:30.400Z,2.75
2018-05-13T15:08:39.188Z,2.65
2018-05-13T15:09:47.822Z,3.12